sensor_id;sensor_type;location;lat;lon;timestamp;temperature;humidity
18654;DHT22;9456;47.824;16.228;2023-07-29T01:42:06;18.90;99.90
18654;DHT22;9456;47.824;16.228;2023-07-29T01:44:35;18.90;99.90
18654;DHT22;9456;47.824;16.228;2023-07-29T01:47:04;18.80;99.90
18654;DHT22;9456;47.824;16.228;2023-07-29T01:49:33;18.80;99.90
18654;DHT22;9456;47.824;16.228;2023-07-29T01:52:02;18.80;99.90
18654;DHT22;9456;47.824;16.228;2023-07-29T01:54:31;18.80;99.90
18654;DHT22;9456;47.824;16.228;2023-07-29T01:57:00;18.80;99.90
18654;DHT22;9456;47.824;16.228;2023-07-29T01:59:29;18.80;99.90
18654;DHT22;9456;47.824;16.228;2023-07-29T02:01:58;18.80;99.90
18654;DHT22;9456;47.824;16.228;2023-07-29T02:04:27;18.80;99.90
18654;DHT22;9456;47.824;16.228;2023-07-29T02:06:56;18.70;99.90
18654;DHT22;9456;47.824;16.228;2023-07-29T02:09:25;18.70;99.90
18654;DHT22;9456;47.824;16.228;2023-07-29T02:11:54;18.70;99.90
18654;DHT22;9456;47.824;16.228;2023-07-29T02:14:23;18.70;99.90
18654;DHT22;9456;47.824;16.228;2023-07-29T02:16:52;18.70;99.90
18654;DHT22;9456;47.824;16.228;2023-07-29T02:19:21;18.60;99.90
18654;DHT22;9456;47.824;16.228;2023-07-29T02:21:49;18.60;99.90
18654;DHT22;9456;47.824;16.228;2023-07-29T02:24:18;18.60;99.90
18654;DHT22;9456;47.824;16.228;2023-07-29T02:26:47;18.60;99.90
18654;DHT22;9456;47.824;16.228;2023-07-29T02:29:16;18.60;99.90
18654;DHT22;9456;47.824;16.228;2023-07-29T02:31:46;18.50;99.90
18654;DHT22;9456;47.824;16.228;2023-07-29T02:34:15;18.50;99.90
18654;DHT22;9456;47.824;16.228;2023-07-29T02:36:44;18.50;99.90
18654;DHT22;9456;47.824;16.228;2023-07-29T02:39:13;18.50;99.90
18654;DHT22;9456;47.824;16.228;2023-07-29T02:41:42;18.40;99.90
18654;DHT22;9456;47.824;16.228;2023-07-29T02:44:12;18.40;99.90
18654;DHT22;9456;47.824;16.228;2023-07-29T02:46:41;18.30;99.90
18654;DHT22;9456;47.824;16.228;2023-07-29T02:49:10;18.30;99.90
18654;DHT22;9456;47.824;16.228;2023-07-29T02:51:39;18.30;99.90
18654;DHT22;9456;47.824;16.228;2023-07-29T02:54:07;18.30;99.90
18654;DHT22;9456;47.824;16.228;2023-07-29T02:56:36;18.30;99.90
18654;DHT22;9456;47.824;16.228;2023-07-29T02:59:05;18.30;99.90
18654;DHT22;9456;47.824;16.228;2023-07-29T03:01:34;18.20;99.90
18654;DHT22;9456;47.824;16.228;2023-07-29T03:04:03;18.20;99.90
18654;DHT22;9456;47.824;16.228;2023-07-29T03:06:36;18.20;99.90
18654;DHT22;9456;47.824;16.228;2023-07-29T03:09:02;18.30;99.90
18654;DHT22;9456;47.824;16.228;2023-07-29T03:11:31;18.30;99.90
18654;DHT22;9456;47.824;16.228;2023-07-29T03:14:00;18.30;99.90
18654;DHT22;9456;47.824;16.228;2023-07-29T03:16:29;18.30;99.90
18654;DHT22;9456;47.824;16.228;2023-07-29T03:18:58;18.40;99.90
18654;DHT22;9456;47.824;16.228;2023-07-29T03:21:27;18.40;99.90
18654;DHT22;9456;47.824;16.228;2023-07-29T03:23:56;18.40;99.90
18654;DHT22;9456;47.824;16.228;2023-07-29T03:26:25;18.50;99.90
18654;DHT22;9456;47.824;16.228;2023-07-29T03:28:54;18.50;99.90
18654;DHT22;9456;47.824;16.228;2023-07-29T03:31:23;18.40;99.90
18654;DHT22;9456;47.824;16.228;2023-07-29T03:33:52;18.40;99.90
18654;DHT22;9456;47.824;16.228;2023-07-29T03:36:21;18.40;99.90
18654;DHT22;9456;47.824;16.228;2023-07-29T03:38:50;18.40;99.90
18654;DHT22;9456;47.824;16.228;2023-07-29T03:41:19;18.40;99.90
18654;DHT22;9456;47.824;16.228;2023-07-29T03:43:48;18.40;99.90
18654;DHT22;9456;47.824;16.228;2023-07-29T03:46:17;18.50;99.90
18654;DHT22;9456;47.824;16.228;2023-07-29T03:48:46;18.40;99.90
18654;DHT22;9456;47.824;16.228;2023-07-29T03:51:15;18.40;99.90
18654;DHT22;9456;47.824;16.228;2023-07-29T03:53:44;18.40;99.90
18654;DHT22;9456;47.824;16.228;2023-07-29T03:56:13;18.50;99.90
18654;DHT22;9456;47.824;16.228;2023-07-29T03:58:42;18.50;99.90
18654;DHT22;9456;47.824;16.228;2023-07-29T04:01:11;18.50;99.90
18654;DHT22;9456;47.824;16.228;2023-07-29T04:03:40;18.60;99.90
18654;DHT22;9456;47.824;16.228;2023-07-29T04:06:09;18.60;99.90
18654;DHT22;9456;47.824;16.228;2023-07-29T04:08:38;18.60;99.90
18654;DHT22;9456;47.824;16.228;2023-07-29T04:11:07;18.60;99.90
18654;DHT22;9456;47.824;16.228;2023-07-29T04:13:36;18.60;99.90
18654;DHT22;9456;47.824;16.228;2023-07-29T04:16:06;18.60;99.90
18654;DHT22;9456;47.824;16.228;2023-07-29T04:18:35;18.60;99.90
18654;DHT22;9456;47.824;16.228;2023-07-29T04:21:04;18.70;99.90
18654;DHT22;9456;47.824;16.228;2023-07-29T04:23:33;18.70;99.90
18654;DHT22;9456;47.824;16.228;2023-07-29T04:26:01;18.80;99.90
18654;DHT22;9456;47.824;16.228;2023-07-29T04:28:30;18.90;99.90
18654;DHT22;9456;47.824;16.228;2023-07-29T04:30:59;18.90;99.90
18654;DHT22;9456;47.824;16.228;2023-07-29T04:35:58;18.90;99.90
18654;DHT22;9456;47.824;16.228;2023-07-29T04:38:31;19.00;99.90
18654;DHT22;9456;47.824;16.228;2023-07-29T04:40:56;19.00;99.90
18654;DHT22;9456;47.824;16.228;2023-07-29T04:43:27;19.00;99.90
18654;DHT22;9456;47.824;16.228;2023-07-29T04:45:58;19.00;99.90
18654;DHT22;9456;47.824;16.228;2023-07-29T04:48:29;19.10;99.90
18654;DHT22;9456;47.824;16.228;2023-07-29T04:50:58;19.20;99.90
18654;DHT22;9456;47.824;16.228;2023-07-29T04:53:41;19.40;99.90
18654;DHT22;9456;47.824;16.228;2023-07-29T04:56:10;19.60;99.90
18654;DHT22;9456;47.824;16.228;2023-07-29T04:58:39;20.10;99.90
18654;DHT22;9456;47.824;16.228;2023-07-29T05:01:08;20.40;99.90
18654;DHT22;9456;47.824;16.228;2023-07-29T05:03:37;20.50;99.90
18654;DHT22;9456;47.824;16.228;2023-07-29T05:06:07;20.70;99.90
18654;DHT22;9456;47.824;16.228;2023-07-29T05:08:36;21.00;99.90
18654;DHT22;9456;47.824;16.228;2023-07-29T05:11:05;21.30;99.90
18654;DHT22;9456;47.824;16.228;2023-07-29T05:13:33;21.40;99.90
18654;DHT22;9456;47.824;16.228;2023-07-29T05:16:03;21.50;99.90
18654;DHT22;9456;47.824;16.228;2023-07-29T05:18:32;21.40;99.90
18654;DHT22;9456;47.824;16.228;2023-07-29T05:21:01;21.30;99.90
18654;DHT22;9456;47.824;16.228;2023-07-29T05:23:30;21.10;99.90
18654;DHT22;9456;47.824;16.228;2023-07-29T05:25:59;21.00;99.90
18654;DHT22;9456;47.824;16.228;2023-07-29T05:28:27;20.80;99.90
18654;DHT22;9456;47.824;16.228;2023-07-29T05:30:56;20.70;99.90
18654;DHT22;9456;47.824;16.228;2023-07-29T05:33:25;20.50;99.90
18654;DHT22;9456;47.824;16.228;2023-07-29T05:35:54;20.50;99.90
18654;DHT22;9456;47.824;16.228;2023-07-29T05:38:25;20.40;99.90
18654;DHT22;9456;47.824;16.228;2023-07-29T05:40:53;20.40;99.90
18654;DHT22;9456;47.824;16.228;2023-07-29T05:43:23;20.40;99.90
18654;DHT22;9456;47.824;16.228;2023-07-29T05:45:51;20.40;99.90
18654;DHT22;9456;47.824;16.228;2023-07-29T05:48:20;20.40;99.90
18654;DHT22;9456;47.824;16.228;2023-07-29T05:50:51;20.40;99.90
18654;DHT22;9456;47.824;16.228;2023-07-29T05:53:20;20.50;99.90
18654;DHT22;9456;47.824;16.228;2023-07-29T05:55:49;20.50;99.90
18654;DHT22;9456;47.824;16.228;2023-07-29T05:58:18;20.50;99.90
18654;DHT22;9456;47.824;16.228;2023-07-29T06:00:47;20.50;99.90
18654;DHT22;9456;47.824;16.228;2023-07-29T06:03:16;20.60;99.90
18654;DHT22;9456;47.824;16.228;2023-07-29T06:05:45;20.50;99.90
18654;DHT22;9456;47.824;16.228;2023-07-29T06:08:14;20.60;99.90
18654;DHT22;9456;47.824;16.228;2023-07-29T06:10:42;20.70;99.90
18654;DHT22;9456;47.824;16.228;2023-07-29T06:13:11;20.70;99.90
18654;DHT22;9456;47.824;16.228;2023-07-29T06:15:40;20.70;99.90
18654;DHT22;9456;47.824;16.228;2023-07-29T06:18:09;20.70;99.90
18654;DHT22;9456;47.824;16.228;2023-07-29T06:20:38;20.60;99.90
18654;DHT22;9456;47.824;16.228;2023-07-29T06:23:07;20.70;99.90
18654;DHT22;9456;47.824;16.228;2023-07-29T06:25:36;20.80;99.90
18654;DHT22;9456;47.824;16.228;2023-07-29T06:28:05;20.90;99.90
18654;DHT22;9456;47.824;16.228;2023-07-29T06:30:34;21.10;99.90
18654;DHT22;9456;47.824;16.228;2023-07-29T06:33:03;21.50;99.90
18654;DHT22;9456;47.824;16.228;2023-07-29T06:35:32;21.80;99.90
18654;DHT22;9456;47.824;16.228;2023-07-29T06:38:01;22.00;99.90
18654;DHT22;9456;47.824;16.228;2023-07-29T06:40:30;22.20;99.90
18654;DHT22;9456;47.824;16.228;2023-07-29T06:42:59;22.30;99.90
18654;DHT22;9456;47.824;16.228;2023-07-29T06:45:28;22.50;99.90
18654;DHT22;9456;47.824;16.228;2023-07-29T06:47:57;22.80;99.90
18654;DHT22;9456;47.824;16.228;2023-07-29T06:50:25;22.80;99.90
18654;DHT22;9456;47.824;16.228;2023-07-29T06:55:36;22.80;99.90
18654;DHT22;9456;47.824;16.228;2023-07-29T06:58:05;22.90;99.90
18654;DHT22;9456;47.824;16.228;2023-07-29T07:00:33;22.90;99.90
18654;DHT22;9456;47.824;16.228;2023-07-29T07:03:02;23.00;99.90
18654;DHT22;9456;47.824;16.228;2023-07-29T07:05:32;23.20;99.90
18654;DHT22;9456;47.824;16.228;2023-07-29T07:08:00;23.30;99.90
18654;DHT22;9456;47.824;16.228;2023-07-29T07:10:29;23.50;99.90
18654;DHT22;9456;47.824;16.228;2023-07-29T07:13:10;23.70;99.90
18654;DHT22;9456;47.824;16.228;2023-07-29T07:15:42;24.40;99.90
18654;DHT22;9456;47.824;16.228;2023-07-29T07:18:16;25.40;99.90
18654;DHT22;9456;47.824;16.228;2023-07-29T07:20:48;26.60;99.90
18654;DHT22;9456;47.824;16.228;2023-07-29T07:23:17;27.60;99.90
18654;DHT22;9456;47.824;16.228;2023-07-29T07:25:46;28.90;99.90
18654;DHT22;9456;47.824;16.228;2023-07-29T07:28:15;29.80;99.90
18654;DHT22;9456;47.824;16.228;2023-07-29T07:30:44;30.10;99.90
18654;DHT22;9456;47.824;16.228;2023-07-29T07:33:13;30.10;99.90
18654;DHT22;9456;47.824;16.228;2023-07-29T07:35:42;29.90;99.90
18654;DHT22;9456;47.824;16.228;2023-07-29T07:38:11;29.50;99.90
18654;DHT22;9456;47.824;16.228;2023-07-29T07:40:40;29.10;99.90
18654;DHT22;9456;47.824;16.228;2023-07-29T07:43:09;28.90;99.90
18654;DHT22;9456;47.824;16.228;2023-07-29T07:45:38;29.00;99.90
18654;DHT22;9456;47.824;16.228;2023-07-29T07:48:06;29.60;99.90
18654;DHT22;9456;47.824;16.228;2023-07-29T07:50:35;30.30;98.60
18654;DHT22;9456;47.824;16.228;2023-07-29T07:53:04;30.40;95.10
18654;DHT22;9456;47.824;16.228;2023-07-29T07:55:34;30.00;93.30
18654;DHT22;9456;47.824;16.228;2023-07-29T07:58:03;29.50;92.90
18654;DHT22;9456;47.824;16.228;2023-07-29T08:00:32;29.10;93.40
18654;DHT22;9456;47.824;16.228;2023-07-29T08:03:01;28.90;93.10
18654;DHT22;9456;47.824;16.228;2023-07-29T08:05:30;28.70;93.00
18654;DHT22;9456;47.824;16.228;2023-07-29T08:07:58;28.70;94.20
18654;DHT22;9456;47.824;16.228;2023-07-29T08:10:27;28.50;94.20
18654;DHT22;9456;47.824;16.228;2023-07-29T08:12:56;28.50;95.60
18654;DHT22;9456;47.824;16.228;2023-07-29T08:15:26;28.60;96.10
18654;DHT22;9456;47.824;16.228;2023-07-29T08:17:54;28.70;97.20
18654;DHT22;9456;47.824;16.228;2023-07-29T08:20:23;29.10;96.30
18654;DHT22;9456;47.824;16.228;2023-07-29T08:22:52;29.40;94.80
18654;DHT22;9456;47.824;16.228;2023-07-29T08:25:21;29.40;94.10
18654;DHT22;9456;47.824;16.228;2023-07-29T08:27:50;29.30;93.40
18654;DHT22;9456;47.824;16.228;2023-07-29T08:30:19;29.10;94.10
18654;DHT22;9456;47.824;16.228;2023-07-29T08:32:48;28.90;93.60
18654;DHT22;9456;47.824;16.228;2023-07-29T08:35:17;28.90;94.90
18654;DHT22;9456;47.824;16.228;2023-07-29T08:37:46;29.20;95.00
18654;DHT22;9456;47.824;16.228;2023-07-29T08:40:15;29.60;93.00
18654;DHT22;9456;47.824;16.228;2023-07-29T08:42:44;30.00;93.00
18654;DHT22;9456;47.824;16.228;2023-07-29T08:45:13;30.10;91.90
18654;DHT22;9456;47.824;16.228;2023-07-29T08:47:42;30.30;90.50
18654;DHT22;9456;47.824;16.228;2023-07-29T08:50:11;30.30;89.00
18654;DHT22;9456;47.824;16.228;2023-07-29T08:52:40;30.50;85.10
18654;DHT22;9456;47.824;16.228;2023-07-29T08:55:09;30.70;90.60
18654;DHT22;9456;47.824;16.228;2023-07-29T08:57:39;30.50;91.00
18654;DHT22;9456;47.824;16.228;2023-07-29T09:00:10;30.40;92.30
18654;DHT22;9456;47.824;16.228;2023-07-29T09:02:39;30.40;92.20
18654;DHT22;9456;47.824;16.228;2023-07-29T09:05:09;30.40;90.80
18654;DHT22;9456;47.824;16.228;2023-07-29T09:07:38;30.60;90.70
18654;DHT22;9456;47.824;16.228;2023-07-29T09:10:09;30.80;90.70
18654;DHT22;9456;47.824;16.228;2023-07-29T09:12:39;31.00;90.80
18654;DHT22;9456;47.824;16.228;2023-07-29T09:15:09;31.20;87.70
18654;DHT22;9456;47.824;16.228;2023-07-29T09:17:38;31.30;86.80
18654;DHT22;9456;47.824;16.228;2023-07-29T09:20:10;31.40;87.90
18654;DHT22;9456;47.824;16.228;2023-07-29T09:22:39;31.40;82.20
18654;DHT22;9456;47.824;16.228;2023-07-29T09:25:09;31.20;79.10
18654;DHT22;9456;47.824;16.228;2023-07-29T09:27:38;31.20;82.80
18654;DHT22;9456;47.824;16.228;2023-07-29T09:30:09;31.10;86.70
18654;DHT22;9456;47.824;16.228;2023-07-29T09:32:38;31.20;90.30
18654;DHT22;9456;47.824;16.228;2023-07-29T09:35:11;31.30;85.70
18654;DHT22;9456;47.824;16.228;2023-07-29T09:37:39;31.10;87.30
18654;DHT22;9456;47.824;16.228;2023-07-29T09:40:13;31.10;87.70
18654;DHT22;9456;47.824;16.228;2023-07-29T09:42:39;31.30;85.20
18654;DHT22;9456;47.824;16.228;2023-07-29T09:45:09;31.40;80.80
18654;DHT22;9456;47.824;16.228;2023-07-29T09:47:38;31.40;82.70
18654;DHT22;9456;47.824;16.228;2023-07-29T09:50:08;31.20;80.70
18654;DHT22;9456;47.824;16.228;2023-07-29T09:52:37;30.80;78.80
18654;DHT22;9456;47.824;16.228;2023-07-29T09:55:08;30.50;77.00
18654;DHT22;9456;47.824;16.228;2023-07-29T09:57:37;30.50;78.20
18654;DHT22;9456;47.824;16.228;2023-07-29T10:00:10;30.40;84.20
18654;DHT22;9456;47.824;16.228;2023-07-29T10:02:40;30.60;85.00
18654;DHT22;9456;47.824;16.228;2023-07-29T10:05:09;30.90;85.00
18654;DHT22;9456;47.824;16.228;2023-07-29T10:07:38;31.10;85.00
18654;DHT22;9456;47.824;16.228;2023-07-29T10:10:08;31.50;82.00
18654;DHT22;9456;47.824;16.228;2023-07-29T10:12:39;31.70;79.70
18654;DHT22;9456;47.824;16.228;2023-07-29T10:15:07;31.90;78.20
18654;DHT22;9456;47.824;16.228;2023-07-29T10:17:37;32.10;67.50
18654;DHT22;9456;47.824;16.228;2023-07-29T10:20:08;32.10;67.50
18654;DHT22;9456;47.824;16.228;2023-07-29T10:22:38;32.20;68.60
18654;DHT22;9456;47.824;16.228;2023-07-29T10:25:09;32.10;73.40
18654;DHT22;9456;47.824;16.228;2023-07-29T10:27:41;32.20;76.50
18654;DHT22;9456;47.824;16.228;2023-07-29T10:30:10;32.30;75.30
18654;DHT22;9456;47.824;16.228;2023-07-29T10:32:39;32.20;74.90
18654;DHT22;9456;47.824;16.228;2023-07-29T10:35:09;32.20;69.50
18654;DHT22;9456;47.824;16.228;2023-07-29T10:37:38;32.10;71.00
18654;DHT22;9456;47.824;16.228;2023-07-29T10:40:09;32.00;70.80
18654;DHT22;9456;47.824;16.228;2023-07-29T10:42:38;32.10;68.00
18654;DHT22;9456;47.824;16.228;2023-07-29T10:45:20;32.10;68.20
18654;DHT22;9456;47.824;16.228;2023-07-29T10:47:49;32.10;66.60
18654;DHT22;9456;47.824;16.228;2023-07-29T10:50:19;32.00;66.60
18654;DHT22;9456;47.824;16.228;2023-07-29T10:52:50;31.80;69.50
18654;DHT22;9456;47.824;16.228;2023-07-29T10:55:27;31.50;74.50
18654;DHT22;9456;47.824;16.228;2023-07-29T10:58:07;31.30;76.50
18654;DHT22;9456;47.824;16.228;2023-07-29T11:00:35;31.00;77.60
18654;DHT22;9456;47.824;16.228;2023-07-29T11:03:05;30.60;79.50
18654;DHT22;9456;47.824;16.228;2023-07-29T11:05:50;30.30;79.40
18654;DHT22;9456;47.824;16.228;2023-07-29T11:08:24;29.90;80.80
18654;DHT22;9456;47.824;16.228;2023-07-29T11:11:03;29.40;82.30
18654;DHT22;9456;47.824;16.228;2023-07-29T11:13:31;29.20;84.00
18654;DHT22;9456;47.824;16.228;2023-07-29T11:16:00;28.90;88.10
18654;DHT22;9456;47.824;16.228;2023-07-29T11:18:29;28.70;89.90
18654;DHT22;9456;47.824;16.228;2023-07-29T11:20:58;28.50;90.60
18654;DHT22;9456;47.824;16.228;2023-07-29T11:23:31;28.30;91.30
18654;DHT22;9456;47.824;16.228;2023-07-29T11:26:00;28.10;92.10
18654;DHT22;9456;47.824;16.228;2023-07-29T11:28:29;28.10;93.40
18654;DHT22;9456;47.824;16.228;2023-07-29T11:30:57;28.00;94.10
18654;DHT22;9456;47.824;16.228;2023-07-29T11:33:27;28.00;94.90
18654;DHT22;9456;47.824;16.228;2023-07-29T11:35:55;28.00;95.50
18654;DHT22;9456;47.824;16.228;2023-07-29T11:38:24;27.90;96.20
18654;DHT22;9456;47.824;16.228;2023-07-29T11:41:00;27.80;96.50
18654;DHT22;9456;47.824;16.228;2023-07-29T11:43:28;27.70;96.50
18654;DHT22;9456;47.824;16.228;2023-07-29T11:45:57;27.70;96.50
18654;DHT22;9456;47.824;16.228;2023-07-29T11:48:31;27.60;96.80
18654;DHT22;9456;47.824;16.228;2023-07-29T11:50:59;27.60;99.50
18654;DHT22;9456;47.824;16.228;2023-07-29T11:53:29;27.40;99.90
18654;DHT22;9456;47.824;16.228;2023-07-29T11:55:58;27.10;99.90
18654;DHT22;9456;47.824;16.228;2023-07-29T11:58:27;26.80;99.90
18654;DHT22;9456;47.824;16.228;2023-07-29T12:00:56;26.60;99.90
18654;DHT22;9456;47.824;16.228;2023-07-29T12:03:25;26.30;99.90
18654;DHT22;9456;47.824;16.228;2023-07-29T12:05:59;26.20;99.90
18654;DHT22;9456;47.824;16.228;2023-07-29T12:08:28;25.90;99.90
18654;DHT22;9456;47.824;16.228;2023-07-29T12:10:57;25.40;99.90
18654;DHT22;9456;47.824;16.228;2023-07-29T12:13:26;25.10;99.90
18654;DHT22;9456;47.824;16.228;2023-07-29T12:16:01;24.90;99.90
18654;DHT22;9456;47.824;16.228;2023-07-29T12:18:31;24.90;99.90
18654;DHT22;9456;47.824;16.228;2023-07-29T12:21:00;24.90;99.90
18654;DHT22;9456;47.824;16.228;2023-07-29T12:23:29;24.90;99.90
18654;DHT22;9456;47.824;16.228;2023-07-29T12:25:59;25.00;99.90
18654;DHT22;9456;47.824;16.228;2023-07-29T12:28:30;25.10;99.90
18654;DHT22;9456;47.824;16.228;2023-07-29T12:30:59;25.30;99.90
18654;DHT22;9456;47.824;16.228;2023-07-29T12:33:32;25.30;99.90
18654;DHT22;9456;47.824;16.228;2023-07-29T12:36:00;25.30;99.90
18654;DHT22;9456;47.824;16.228;2023-07-29T12:38:29;25.30;99.90
18654;DHT22;9456;47.824;16.228;2023-07-29T12:40:58;25.40;99.90
18654;DHT22;9456;47.824;16.228;2023-07-29T12:43:27;25.50;99.90
18654;DHT22;9456;47.824;16.228;2023-07-29T12:45:57;25.60;99.90
18654;DHT22;9456;47.824;16.228;2023-07-29T12:48:26;25.70;99.90
18654;DHT22;9456;47.824;16.228;2023-07-29T12:50:55;25.70;99.90
18654;DHT22;9456;47.824;16.228;2023-07-29T12:53:24;25.70;99.90
18654;DHT22;9456;47.824;16.228;2023-07-29T12:55:53;25.70;99.90
18654;DHT22;9456;47.824;16.228;2023-07-29T12:58:21;25.60;99.90
18654;DHT22;9456;47.824;16.228;2023-07-29T13:00:50;25.60;99.90
18654;DHT22;9456;47.824;16.228;2023-07-29T13:03:19;25.40;99.90
18654;DHT22;9456;47.824;16.228;2023-07-29T13:05:48;25.20;99.90
18654;DHT22;9456;47.824;16.228;2023-07-29T13:11:04;24.70;99.90
18654;DHT22;9456;47.824;16.228;2023-07-29T13:13:32;24.20;99.90
18654;DHT22;9456;47.824;16.228;2023-07-29T13:16:01;23.90;99.90
18654;DHT22;9456;47.824;16.228;2023-07-29T13:18:30;23.60;99.90
18654;DHT22;9456;47.824;16.228;2023-07-29T13:20:59;23.30;99.90
18654;DHT22;9456;47.824;16.228;2023-07-29T13:23:28;23.10;99.90
18654;DHT22;9456;47.824;16.228;2023-07-29T13:25:58;23.00;99.90
18654;DHT22;9456;47.824;16.228;2023-07-29T13:28:27;23.00;99.90
18654;DHT22;9456;47.824;16.228;2023-07-29T13:30:56;23.00;99.90
18654;DHT22;9456;47.824;16.228;2023-07-29T13:33:25;23.10;99.90
18654;DHT22;9456;47.824;16.228;2023-07-29T13:35:54;23.10;99.90
18654;DHT22;9456;47.824;16.228;2023-07-29T13:38:23;23.20;99.90
18654;DHT22;9456;47.824;16.228;2023-07-29T13:40:52;23.20;99.90
18654;DHT22;9456;47.824;16.228;2023-07-29T13:43:21;23.30;99.90
18654;DHT22;9456;47.824;16.228;2023-07-29T13:45:49;23.30;99.90
18654;DHT22;9456;47.824;16.228;2023-07-29T13:48:18;23.20;99.90
18654;DHT22;9456;47.824;16.228;2023-07-29T13:50:47;23.20;99.90
18654;DHT22;9456;47.824;16.228;2023-07-29T13:53:16;23.10;99.90
18654;DHT22;9456;47.824;16.228;2023-07-29T13:55:45;23.10;99.90
18654;DHT22;9456;47.824;16.228;2023-07-29T13:58:14;23.00;99.90
18654;DHT22;9456;47.824;16.228;2023-07-29T14:00:43;22.80;99.90
18654;DHT22;9456;47.824;16.228;2023-07-29T14:03:12;22.60;99.90
18654;DHT22;9456;47.824;16.228;2023-07-29T14:05:41;22.40;99.90
18654;DHT22;9456;47.824;16.228;2023-07-29T14:08:11;22.30;99.90
18654;DHT22;9456;47.824;16.228;2023-07-29T14:10:42;22.20;99.90
18654;DHT22;9456;47.824;16.228;2023-07-29T14:13:11;22.20;99.90
18654;DHT22;9456;47.824;16.228;2023-07-29T14:15:40;22.10;99.90
18654;DHT22;9456;47.824;16.228;2023-07-29T14:18:09;22.10;99.90
18654;DHT22;9456;47.824;16.228;2023-07-29T14:20:38;22.10;99.90
18654;DHT22;9456;47.824;16.228;2023-07-29T14:23:07;22.00;99.90
18654;DHT22;9456;47.824;16.228;2023-07-29T14:25:35;22.00;99.90
18654;DHT22;9456;47.824;16.228;2023-07-29T14:28:05;22.10;99.90
18654;DHT22;9456;47.824;16.228;2023-07-29T14:30:34;22.10;99.90
18654;DHT22;9456;47.824;16.228;2023-07-29T14:33:02;22.10;99.90
18654;DHT22;9456;47.824;16.228;2023-07-29T14:35:32;22.10;99.90
18654;DHT22;9456;47.824;16.228;2023-07-29T14:38:00;22.20;99.90
18654;DHT22;9456;47.824;16.228;2023-07-29T14:40:29;22.30;99.90
18654;DHT22;9456;47.824;16.228;2023-07-29T14:42:58;22.50;99.90
18654;DHT22;9456;47.824;16.228;2023-07-29T14:45:27;22.60;99.90
18654;DHT22;9456;47.824;16.228;2023-07-29T14:47:56;22.70;99.90
18654;DHT22;9456;47.824;16.228;2023-07-29T14:50:25;22.80;99.90
18654;DHT22;9456;47.824;16.228;2023-07-29T14:52:54;22.90;99.90
18654;DHT22;9456;47.824;16.228;2023-07-29T14:55:23;23.00;99.90
18654;DHT22;9456;47.824;16.228;2023-07-29T14:57:52;23.10;99.90
18654;DHT22;9456;47.824;16.228;2023-07-29T15:00:21;23.10;99.90
18654;DHT22;9456;47.824;16.228;2023-07-29T15:02:50;23.20;99.90
18654;DHT22;9456;47.824;16.228;2023-07-29T15:05:19;23.30;99.90
18654;DHT22;9456;47.824;16.228;2023-07-29T15:07:48;23.40;99.90
18654;DHT22;9456;47.824;16.228;2023-07-29T15:10:17;23.50;99.90
18654;DHT22;9456;47.824;16.228;2023-07-29T15:12:51;23.70;99.90
18654;DHT22;9456;47.824;16.228;2023-07-29T15:15:20;23.90;99.90
18654;DHT22;9456;47.824;16.228;2023-07-29T15:17:49;24.00;99.90
18654;DHT22;9456;47.824;16.228;2023-07-29T15:20:18;24.20;99.90
18654;DHT22;9456;47.824;16.228;2023-07-29T15:22:47;24.30;99.90
18654;DHT22;9456;47.824;16.228;2023-07-29T15:25:16;24.30;99.90
18654;DHT22;9456;47.824;16.228;2023-07-29T15:27:45;24.30;99.90
18654;DHT22;9456;47.824;16.228;2023-07-29T15:30:15;24.40;99.90
18654;DHT22;9456;47.824;16.228;2023-07-29T15:32:44;24.50;99.90
18654;DHT22;9456;47.824;16.228;2023-07-29T15:35:13;24.60;99.90
18654;DHT22;9456;47.824;16.228;2023-07-29T15:37:42;24.60;99.90
18654;DHT22;9456;47.824;16.228;2023-07-29T15:40:11;24.70;99.90
18654;DHT22;9456;47.824;16.228;2023-07-29T15:42:40;24.80;99.90
18654;DHT22;9456;47.824;16.228;2023-07-29T15:45:11;24.80;99.90
18654;DHT22;9456;47.824;16.228;2023-07-29T15:47:40;24.80;99.90
18654;DHT22;9456;47.824;16.228;2023-07-29T15:50:10;24.90;99.90
18654;DHT22;9456;47.824;16.228;2023-07-29T15:52:39;24.90;99.90
18654;DHT22;9456;47.824;16.228;2023-07-29T15:55:09;25.00;99.90
18654;DHT22;9456;47.824;16.228;2023-07-29T15:57:38;25.00;99.90
18654;DHT22;9456;47.824;16.228;2023-07-29T16:00:09;25.00;99.90
18654;DHT22;9456;47.824;16.228;2023-07-29T16:02:38;25.00;99.90
18654;DHT22;9456;47.824;16.228;2023-07-29T16:05:07;25.10;99.90
18654;DHT22;9456;47.824;16.228;2023-07-29T16:07:36;25.10;99.90
18654;DHT22;9456;47.824;16.228;2023-07-29T16:10:08;25.10;99.90
18654;DHT22;9456;47.824;16.228;2023-07-29T16:12:36;25.20;99.90
18654;DHT22;9456;47.824;16.228;2023-07-29T16:15:09;25.20;99.90
18654;DHT22;9456;47.824;16.228;2023-07-29T16:17:38;25.20;99.90
18654;DHT22;9456;47.824;16.228;2023-07-29T16:20:09;25.20;99.90
18654;DHT22;9456;47.824;16.228;2023-07-29T16:22:38;25.20;99.90
18654;DHT22;9456;47.824;16.228;2023-07-29T16:25:07;25.20;99.90
18654;DHT22;9456;47.824;16.228;2023-07-29T16:27:36;25.10;99.90
18654;DHT22;9456;47.824;16.228;2023-07-29T16:30:07;25.10;99.90
18654;DHT22;9456;47.824;16.228;2023-07-29T16:32:36;25.10;99.90
18654;DHT22;9456;47.824;16.228;2023-07-29T16:35:06;25.10;99.90
18654;DHT22;9456;47.824;16.228;2023-07-29T16:37:34;25.20;99.90
18654;DHT22;9456;47.824;16.228;2023-07-29T16:40:05;25.20;99.90
18654;DHT22;9456;47.824;16.228;2023-07-29T16:42:34;25.20;99.90
18654;DHT22;9456;47.824;16.228;2023-07-29T16:45:03;25.20;99.90
18654;DHT22;9456;47.824;16.228;2023-07-29T16:47:32;25.20;99.90
18654;DHT22;9456;47.824;16.228;2023-07-29T16:50:01;25.20;99.90
18654;DHT22;9456;47.824;16.228;2023-07-29T16:52:30;25.30;99.90
18654;DHT22;9456;47.824;16.228;2023-07-29T16:54:59;25.30;99.90
18654;DHT22;9456;47.824;16.228;2023-07-29T16:57:28;25.30;99.90
18654;DHT22;9456;47.824;16.228;2023-07-29T16:59:57;25.30;99.90
18654;DHT22;9456;47.824;16.228;2023-07-29T17:02:26;25.30;99.90
18654;DHT22;9456;47.824;16.228;2023-07-29T17:04:55;25.30;99.90
18654;DHT22;9456;47.824;16.228;2023-07-29T17:07:24;25.30;99.90
18654;DHT22;9456;47.824;16.228;2023-07-29T17:09:53;25.30;99.90
18654;DHT22;9456;47.824;16.228;2023-07-29T17:12:22;25.30;99.90
18654;DHT22;9456;47.824;16.228;2023-07-29T17:14:51;25.30;99.90
18654;DHT22;9456;47.824;16.228;2023-07-29T17:17:20;25.30;99.90
18654;DHT22;9456;47.824;16.228;2023-07-29T17:19:49;25.30;99.90
18654;DHT22;9456;47.824;16.228;2023-07-29T17:22:18;25.30;99.90
18654;DHT22;9456;47.824;16.228;2023-07-29T17:24:47;25.30;99.90
18654;DHT22;9456;47.824;16.228;2023-07-29T17:27:15;25.20;99.90
18654;DHT22;9456;47.824;16.228;2023-07-29T17:29:45;25.20;99.90
18654;DHT22;9456;47.824;16.228;2023-07-29T17:32:14;25.20;99.90